createdAt,value
2023-09-08T00:02:23.872Z,6.6
2023-09-08T00:07:24.002Z,5.9
2023-09-08T00:12:24.039Z,6.7
2023-09-08T00:17:24.172Z,6.8
2023-09-08T00:22:24.263Z,7
2023-09-08T00:27:24.306Z,7.2
2023-09-08T00:32:24.780Z,7.1
2023-09-08T00:37:25.096Z,6.8
2023-09-08T00:42:24.430Z,7.6
2023-09-08T00:47:24.699Z,7.7
2023-09-08T00:52:24.639Z,7.8
2023-09-08T00:57:24.857Z,7.2
2023-09-08T01:02:25.386Z,8.1
2023-09-08T01:07:25.375Z,8
2023-09-08T01:12:25.331Z,8.2
2023-09-08T01:17:24.776Z,8.4
2023-09-08T01:22:38.952Z,8.7
2023-09-08T01:27:26.308Z,8.5
2023-09-08T01:32:25.287Z,9.2
2023-09-08T01:37:27.002Z,8.8
2023-09-08T01:42:25.113Z,9.3
2023-09-08T01:47:25.027Z,9.2
2023-09-08T01:52:25.072Z,9.9
2023-09-08T01:57:25.347Z,9.2
2023-09-08T02:02:25.169Z,10.4
2023-09-08T02:07:25.270Z,9.9
2023-09-08T02:12:25.796Z,9.9
2023-09-08T02:17:25.273Z,10.4
2023-09-08T02:22:25.289Z,10.9
2023-09-08T02:27:25.340Z,10.4
2023-09-08T02:32:25.276Z,10.3
2023-09-08T02:37:25.325Z,10.6
2023-09-08T02:42:25.407Z,10.3
2023-09-08T02:47:25.286Z,10.6
2023-09-08T02:52:25.330Z,10.9
2023-09-08T02:57:25.284Z,12.8
2023-09-08T03:02:25.453Z,11.8
2023-09-08T03:07:25.405Z,11.6
2023-09-08T03:12:25.391Z,12.1
2023-09-08T03:17:25.489Z,11.8
2023-09-08T03:22:25.907Z,12.5
2023-09-08T03:27:25.437Z,12.4
2023-09-08T03:32:26.455Z,12.9
2023-09-08T03:37:27.122Z,13.4
2023-09-08T03:42:25.420Z,12.6
2023-09-08T03:47:25.625Z,12.7
2023-09-08T03:52:25.509Z,13.3
2023-09-08T03:57:25.580Z,13.7
2023-09-08T04:02:25.556Z,13.7
2023-09-08T04:07:25.640Z,14.1
2023-09-08T04:12:25.538Z,14.1
2023-09-08T04:17:25.536Z,14.7
2023-09-08T04:22:25.593Z,14.7
2023-09-08T04:27:25.589Z,13.9
2023-09-08T04:32:25.563Z,15.3
2023-09-08T04:37:25.522Z,15.3
2023-09-08T04:42:25.646Z,15.2
2023-09-08T04:47:25.508Z,15.7
2023-09-08T04:52:25.578Z,15.3
2023-09-08T04:57:25.655Z,15.9
2023-09-08T05:02:25.628Z,15.5
2023-09-08T05:07:25.565Z,15.6
2023-09-08T05:12:25.575Z,15.2
2023-09-08T05:17:25.615Z,15.4
2023-09-08T05:22:26.565Z,15.1
2023-09-08T05:27:25.585Z,15.5
2023-09-08T05:32:25.757Z,14.9
2023-09-08T05:37:25.578Z,14.4
2023-09-08T05:42:25.597Z,14
2023-09-08T05:47:25.653Z,14.1
2023-09-08T05:52:27.631Z,14.6
2023-09-08T05:57:25.712Z,14.6
2023-09-08T06:02:25.850Z,13.6
2023-09-08T06:07:25.728Z,13.4
2023-09-08T06:12:25.945Z,13.4
2023-09-08T06:17:25.818Z,13.4
2023-09-08T06:22:25.922Z,13.4
2023-09-08T06:27:26.068Z,12.5
2023-09-08T06:32:26.200Z,10.2
2023-09-08T06:37:26.454Z,9.4
2023-09-08T06:42:26.779Z,9
2023-09-08T06:47:27.236Z,9.2
2023-09-08T06:52:27.592Z,8.5
2023-09-08T06:57:28.065Z,8.8
2023-09-08T07:02:28.677Z,8.4
2023-09-08T07:07:29.045Z,8.4
2023-09-08T07:12:29.631Z,8.1
2023-09-08T07:17:30.589Z,8.3
2023-09-08T07:22:30.801Z,7.4
2023-09-08T07:27:31.414Z,7.7
2023-09-08T07:32:32.163Z,7.1
2023-09-08T07:37:32.821Z,6.9
2023-09-08T07:42:33.501Z,6.6
2023-09-08T07:47:34.199Z,6.7
2023-09-08T07:52:34.940Z,6.4
2023-09-08T07:57:35.732Z,6.2
2023-09-08T08:02:36.522Z,5.5
2023-09-08T08:07:37.254Z,5.4
2023-09-08T08:12:38.150Z,5.2
2023-09-08T08:17:38.925Z,5.2
2023-09-08T08:22:39.609Z,5.7
2023-09-08T08:27:40.374Z,5
2023-09-08T08:32:41.630Z,5.4
2023-09-08T08:37:43.819Z,5.8
2023-09-08T08:42:43.083Z,5.1
2023-09-08T08:47:44.340Z,5.2
2023-09-08T08:52:44.605Z,5.4
2023-09-08T08:57:45.652Z,5.2
2023-09-08T09:02:51.497Z,5.5
2023-09-08T09:07:46.664Z,5.7
2023-09-08T09:12:47.322Z,5.4
2023-09-08T09:17:48.170Z,5.5
2023-09-08T09:22:50.176Z,5.1
2023-09-08T09:27:54.037Z,5.6
2023-09-08T09:32:50.676Z,5.1
2023-09-08T09:37:53.734Z,5
2023-09-08T09:42:53.858Z,5.8
2023-09-08T09:47:53.002Z,5.2
2023-09-08T09:52:53.898Z,5.1
2023-09-08T09:57:55.907Z,5.4
2023-09-08T10:02:56.273Z,5.6
2023-09-08T10:07:56.638Z,5.5
2023-09-08T10:12:58.344Z,5.8
2023-09-08T10:18:01.163Z,5.8
2023-09-08T10:22:59.701Z,5.5
2023-09-08T10:27:59.771Z,5.1
2023-09-08T10:33:00.740Z,5.7
2023-09-08T10:38:13.471Z,5.7
2023-09-08T10:43:16.171Z,5.8
2023-09-08T10:48:03.570Z,6.5
2023-09-08T10:53:17.568Z,6.2
2023-09-08T10:58:04.704Z,5.7
2023-09-08T11:03:05.710Z,5.7
2023-09-08T11:08:06.474Z,6.4
2023-09-08T11:13:07.320Z,7
2023-09-08T11:18:13.241Z,6.5
2023-09-08T11:23:09.771Z,6.4
2023-09-08T11:28:10.557Z,6.3
2023-09-08T11:33:18.458Z,7.2
2023-09-08T11:38:14.513Z,5.9
2023-09-08T11:43:12.517Z,6.5
2023-09-08T11:48:13.427Z,7.1
2023-09-08T11:53:14.185Z,6.3
2023-09-08T11:58:15.147Z,6.1
2023-09-08T12:03:19.682Z,5.6
2023-09-08T12:08:18.021Z,5.8
2023-09-08T12:13:18.283Z,5.8
2023-09-08T12:18:19.626Z,6
2023-09-08T12:23:24.562Z,6.4
2023-09-08T12:28:22.106Z,5.3
2023-09-08T12:33:22.117Z,5.4
2023-09-08T12:38:23.679Z,5.4
2023-09-08T12:43:27.262Z,4.6
2023-09-08T12:48:24.066Z,5.3
2023-09-08T12:53:25.054Z,5.2
2023-09-08T12:58:25.886Z,5.2
2023-09-08T13:03:26.848Z,5.1
2023-09-08T13:08:27.810Z,5.1
2023-09-08T13:13:30.283Z,5.6
2023-09-08T13:18:29.678Z,5.6
2023-09-08T13:23:30.485Z,5.4
2023-09-08T13:28:31.538Z,5.9
2023-09-08T13:33:32.328Z,5.5
2023-09-08T13:38:33.271Z,5.3
2023-09-08T13:43:34.156Z,5.4
2023-09-08T13:48:36.100Z,5.4
2023-09-08T13:53:43.849Z,5.5
2023-09-08T13:58:48.856Z,5.3
2023-09-08T14:04:01.733Z,4.5
2023-09-08T14:08:57.641Z,4.8
2023-09-08T14:13:40.480Z,5.1
2023-09-08T14:18:40.369Z,5
2023-09-08T14:23:41.871Z,5.3
2023-09-08T14:28:41.989Z,5.1
2023-09-08T14:33:42.857Z,5
2023-09-08T14:38:43.751Z,4.8
2023-09-08T14:43:44.639Z,4.8
2023-09-08T14:48:45.440Z,4.9
2023-09-08T14:53:46.181Z,5.1
2023-09-08T14:58:47.051Z,5.2
2023-09-08T15:03:47.944Z,5
2023-09-08T15:08:49.106Z,5.1
2023-09-08T15:13:49.489Z,5.1
2023-09-08T15:18:50.234Z,4.9
2023-09-08T15:23:51.108Z,5.5
2023-09-08T15:28:51.867Z,5.1
2023-09-08T15:33:52.955Z,5
2023-09-08T15:38:53.943Z,6
2023-09-08T15:43:57.196Z,5.2
2023-09-08T15:48:55.065Z,5.5
2023-09-08T15:53:55.895Z,4.7
2023-09-08T15:58:58.518Z,5.2
2023-09-08T16:03:57.578Z,5.2
2023-09-08T16:08:58.510Z,4.9
2023-09-08T16:13:59.052Z,4.5
2023-09-08T16:18:59.918Z,4.8
2023-09-08T16:24:00.994Z,5.2
2023-09-08T16:29:01.527Z,5.1
2023-09-08T16:34:02.263Z,4.8
2023-09-08T16:39:03.056Z,5
2023-09-08T16:44:03.811Z,5.1
2023-09-08T16:49:04.556Z,5
2023-09-08T16:54:05.346Z,5.1
2023-09-08T16:59:06.152Z,5
2023-09-08T17:04:06.990Z,5.8
2023-09-08T17:09:08.606Z,5
2023-09-08T17:14:08.305Z,5.3
2023-09-08T17:19:08.981Z,5.4
2023-09-08T17:24:09.769Z,5.3
2023-09-08T17:29:10.257Z,5.8
2023-09-08T17:34:11.069Z,6
2023-09-08T17:39:11.366Z,5.7
2023-09-08T17:44:11.861Z,6.3
2023-09-08T17:49:12.462Z,5.8
2023-09-08T17:54:12.989Z,5.9
2023-09-08T17:59:13.142Z,6.3
2023-09-08T18:04:13.905Z,6.8
2023-09-08T18:09:14.429Z,7
2023-09-08T18:14:16.878Z,7
2023-09-08T18:19:15.004Z,7.1
2023-09-08T18:24:15.283Z,7.6
2023-09-08T18:29:15.668Z,8.2
2023-09-08T18:34:16.056Z,8
2023-09-08T18:39:16.357Z,8.9
2023-09-08T18:44:16.781Z,8.9
2023-09-08T18:49:17.106Z,8.6
2023-09-08T18:54:17.473Z,9.4
2023-09-08T18:59:17.855Z,9.4
2023-09-08T19:04:18.311Z,9.6
2023-09-08T19:09:18.542Z,9.7
2023-09-08T19:14:19.607Z,8.9
2023-09-08T19:19:19.175Z,8.6
2023-09-08T19:24:19.564Z,8.7
2023-09-08T19:29:20.012Z,9
2023-09-08T19:34:20.306Z,8.6
2023-09-08T19:39:20.604Z,9.9
2023-09-08T19:44:20.844Z,10.1
2023-09-08T19:49:21.107Z,9.9
2023-09-08T19:54:21.425Z,9.2
2023-09-08T19:59:23.151Z,9
2023-09-08T20:04:21.906Z,9.3
2023-09-08T20:09:22.151Z,9.3
2023-09-08T20:14:22.542Z,9
2023-09-08T20:19:22.708Z,9
2023-09-08T20:24:23.334Z,9.4
2023-09-08T20:29:23.302Z,9.4
2023-09-08T20:34:23.553Z,8.9
2023-09-08T20:39:24.115Z,9.7
2023-09-08T20:44:24.012Z,10.2
2023-09-08T20:49:24.355Z,9.7
2023-09-08T20:54:24.594Z,11.3
2023-09-08T20:59:26.863Z,9.9
2023-09-08T21:04:25.068Z,10.9
2023-09-08T21:09:25.483Z,10.1
2023-09-08T21:14:25.441Z,9.4
2023-09-08T21:19:26.866Z,9.7
2023-09-08T21:24:25.745Z,10.1
2023-09-08T21:29:25.981Z,9.8
2023-09-08T21:34:26.131Z,9.9
2023-09-08T21:39:26.274Z,10.6
2023-09-08T21:44:27.203Z,10
2023-09-08T21:49:26.824Z,10.8
2023-09-08T21:54:26.841Z,10.1
2023-09-08T21:59:27.314Z,9.9
2023-09-08T22:04:27.479Z,9.5
2023-09-08T22:09:27.384Z,10.3
2023-09-08T22:14:28.570Z,10.4
2023-09-08T22:19:27.770Z,11.6
2023-09-08T22:24:28.003Z,12.3
2023-09-08T22:29:28.144Z,11.8
2023-09-08T22:34:28.431Z,11
2023-09-08T22:39:28.546Z,15.8
2023-09-08T22:44:28.694Z,16.6
2023-09-08T22:49:29.037Z,18
2023-09-08T22:54:29.146Z,18.5
2023-09-08T22:59:29.248Z,19.8
2023-09-08T23:04:29.401Z,19.4
2023-09-08T23:09:29.556Z,18.1
2023-09-08T23:14:29.828Z,17.6
2023-09-08T23:19:29.958Z,17.1
2023-09-08T23:24:30.185Z,18.3
2023-09-08T23:29:30.288Z,18.8
2023-09-08T23:34:30.600Z,20.7
2023-09-08T23:39:30.929Z,22.8
2023-09-08T23:44:30.844Z,20.7
2023-09-08T23:49:30.911Z,20.5
2023-09-08T23:54:31.098Z,20.8
2023-09-08T23:59:31.246Z,20.6
